createdAt,value
2016-09-21T00:00:29.249Z,22.56
2016-09-21T00:01:29.235Z,22.54
2016-09-21T00:02:29.205Z,22.56
2016-09-21T00:03:29.220Z,22.48
2016-09-21T00:04:29.178Z,22.49
2016-09-21T00:05:29.159Z,22.57
2016-09-21T00:06:29.140Z,22.45
2016-09-21T00:07:29.125Z,22.54
2016-09-21T00:08:29.116Z,22.45
2016-09-21T00:09:29.097Z,22.45
2016-09-21T00:10:29.083Z,22.45
2016-09-21T00:11:29.070Z,22.56
2016-09-21T00:12:28.446Z,22.49
2016-09-21T00:13:29.035Z,22.56
2016-09-21T00:14:29.024Z,22.52
2016-09-21T00:15:28.713Z,22.59
2016-09-21T00:16:28.990Z,22.56
2016-09-21T00:17:28.970Z,22.6
2016-09-21T00:18:28.661Z,22.59
2016-09-21T00:19:28.940Z,22.59
2016-09-21T00:20:28.933Z,22.54
2016-09-21T00:21:28.914Z,22.56
2016-09-21T00:22:28.896Z,22.45
2016-09-21T00:23:28.573Z,22.49
2016-09-21T00:24:28.569Z,22.54
2016-09-21T00:25:28.551Z,22.6
2016-09-21T00:26:28.835Z,22.57
2016-09-21T00:27:28.816Z,22.54
2016-09-21T00:28:28.799Z,22.51
2016-09-21T00:29:28.786Z,22.56
2016-09-21T00:30:28.466Z,22.56
2016-09-21T00:31:28.751Z,22.54
2016-09-21T00:32:28.740Z,22.56
2016-09-21T00:33:28.419Z,22.57
2016-09-21T00:34:28.400Z,22.54
2016-09-21T00:35:28.693Z,22.52
2016-09-21T00:36:28.369Z,22.56
2016-09-21T00:37:28.667Z,22.45
2016-09-21T00:38:28.648Z,22.45
2016-09-21T00:39:28.621Z,22.56
2016-09-21T00:40:28.321Z,22.46
2016-09-21T00:41:28.598Z,22.51
2016-09-21T00:42:28.610Z,22.57
2016-09-21T00:43:28.561Z,22.51
2016-09-21T00:44:28.556Z,22.52
2016-09-21T00:45:28.539Z,22.59
2016-09-21T00:46:28.220Z,22.59
2016-09-21T00:47:28.206Z,22.57
2016-09-21T00:48:28.479Z,22.45
2016-09-21T00:49:28.472Z,22.57
2016-09-21T00:50:28.454Z,22.57
2016-09-21T00:51:28.440Z,22.51
2016-09-21T00:52:28.125Z,22.6
2016-09-21T00:53:28.109Z,22.57
2016-09-21T00:54:28.085Z,22.51
2016-09-21T00:55:28.378Z,22.51
2016-09-21T00:56:28.361Z,22.52
2016-09-21T00:57:28.354Z,22.46
2016-09-21T00:58:28.338Z,22.59
2016-09-21T00:59:28.303Z,22.57
2016-09-21T01:00:27.996Z,22.54
2016-09-21T01:01:28.279Z,22.57
2016-09-21T01:02:28.264Z,22.56
2016-09-21T01:03:28.244Z,22.54
2016-09-21T01:04:28.231Z,22.6
2016-09-21T01:05:28.218Z,22.49
2016-09-21T01:06:27.900Z,22.54
2016-09-21T01:07:27.887Z,22.63
2016-09-21T01:08:28.170Z,22.52
2016-09-21T01:09:28.151Z,22.48
2016-09-21T01:10:27.840Z,22.6
2016-09-21T01:11:28.131Z,22.48
2016-09-21T01:12:28.103Z,22.52
2016-09-21T01:13:28.096Z,22.52
2016-09-21T01:14:27.471Z,22.52
2016-09-21T01:15:27.756Z,22.57
2016-09-21T01:16:28.052Z,22.56
2016-09-21T01:17:27.732Z,22.49
2016-09-21T01:18:28.010Z,22.6
2016-09-21T01:19:27.992Z,22.45
2016-09-21T01:20:27.688Z,22.57
2016-09-21T01:21:27.961Z,22.48
2016-09-21T01:22:27.645Z,22.49
2016-09-21T01:23:27.632Z,22.48
2016-09-21T01:24:27.916Z,22.56
2016-09-21T01:25:27.904Z,22.45
2016-09-21T01:26:27.901Z,22.52
2016-09-21T01:27:27.881Z,22.56
2016-09-21T01:28:27.858Z,22.57
2016-09-21T01:29:27.835Z,22.54
2016-09-21T01:30:27.540Z,22.57
2016-09-21T01:31:27.800Z,22.56
2016-09-21T01:32:27.800Z,22.56
2016-09-21T01:33:27.479Z,22.59
2016-09-21T01:34:27.761Z,22.44
2016-09-21T01:35:27.750Z,22.49
2016-09-21T01:36:27.432Z,22.56
2016-09-21T01:37:27.412Z,22.48
2016-09-21T01:38:27.399Z,22.57
2016-09-21T01:39:27.678Z,22.54
2016-09-21T01:40:27.667Z,22.56
2016-09-21T01:41:27.652Z,22.59
2016-09-21T01:42:27.630Z,22.51
2016-09-21T01:43:27.626Z,22.54
2016-09-21T01:44:27.597Z,22.6
2016-09-21T01:45:27.600Z,22.51
2016-09-21T01:46:27.581Z,22.48
2016-09-21T01:47:27.272Z,22.56
2016-09-21T01:48:27.537Z,22.51
2016-09-21T01:49:27.526Z,22.6
2016-09-21T01:50:27.508Z,22.57
2016-09-21T01:51:27.191Z,22.49
2016-09-21T01:52:27.485Z,22.48
2016-09-21T01:53:27.463Z,22.56
2016-09-21T01:54:27.458Z,22.57
2016-09-21T01:55:27.122Z,22.52
2016-09-21T01:56:27.412Z,22.48
2016-09-21T01:57:27.397Z,22.57
2016-09-21T01:58:27.376Z,22.54
2016-09-21T01:59:27.059Z,22.49
2016-09-21T02:00:27.345Z,22.56
2016-09-21T02:01:27.332Z,22.57
2016-09-21T02:02:27.318Z,22.51
2016-09-21T02:03:27.302Z,22.45
2016-09-21T02:04:27.308Z,22.51
2016-09-21T02:05:26.971Z,22.45
2016-09-21T02:06:27.258Z,22.56
2016-09-21T02:07:26.942Z,22.51
2016-09-21T02:08:27.217Z,22.56
2016-09-21T02:09:27.204Z,22.56
2016-09-21T02:10:27.196Z,22.59
2016-09-21T02:11:27.183Z,22.61
2016-09-21T02:12:27.163Z,22.56
2016-09-21T02:13:27.145Z,22.51
2016-09-21T02:14:26.519Z,22.57
2016-09-21T02:15:27.103Z,22.57
2016-09-21T02:16:27.095Z,22.57
2016-09-21T02:17:26.476Z,22.52
2016-09-21T02:18:27.061Z,22.57
2016-09-21T02:19:27.048Z,22.48
2016-09-21T02:20:27.043Z,22.59
2016-09-21T02:21:27.021Z,22.56
2016-09-21T02:22:26.395Z,22.54
2016-09-21T02:23:26.690Z,22.46
2016-09-21T02:24:26.667Z,22.54
2016-09-21T02:25:26.954Z,22.44
2016-09-21T02:26:26.941Z,22.48
2016-09-21T02:27:26.625Z,22.46
2016-09-21T02:28:26.921Z,22.59
2016-09-21T02:29:26.591Z,22.54
2016-09-21T02:30:26.573Z,22.44
2016-09-21T02:31:26.854Z,22.54
2016-09-21T02:32:26.842Z,22.51
2016-09-21T02:33:26.528Z,22.42
2016-09-21T02:34:26.819Z,22.48
2016-09-21T02:35:26.795Z,22.44
2016-09-21T02:36:26.780Z,22.51
2016-09-21T02:37:26.767Z,22.56
2016-09-21T02:38:26.746Z,22.54
2016-09-21T02:39:26.729Z,22.45
2016-09-21T02:40:26.717Z,22.51
2016-09-21T02:41:26.701Z,22.44
2016-09-21T02:42:26.688Z,22.45
2016-09-21T02:43:26.369Z,22.49
2016-09-21T02:44:26.662Z,22.46
2016-09-21T02:45:26.638Z,22.49
2016-09-21T02:46:26.617Z,22.45
2016-09-21T02:47:26.012Z,22.45
2016-09-21T02:48:26.597Z,22.45
2016-09-21T02:49:26.575Z,22.56
2016-09-21T02:50:26.559Z,22.45
2016-09-21T02:51:26.547Z,22.49
2016-09-21T02:52:26.528Z,22.54
2016-09-21T02:53:26.510Z,22.56
2016-09-21T02:54:26.504Z,22.45
2016-09-21T02:55:26.492Z,22.45
2016-09-21T02:56:26.471Z,22.49
2016-09-21T02:57:26.454Z,22.45
2016-09-21T02:58:26.132Z,22.45
2016-09-21T02:59:26.418Z,22.49
2016-09-21T03:00:26.400Z,22.54
2016-09-21T03:01:26.393Z,22.49
2016-09-21T03:02:26.372Z,22.46
2016-09-21T03:03:26.048Z,22.57
2016-09-21T03:04:26.338Z,22.41
2016-09-21T03:05:26.019Z,22.52
2016-09-21T03:06:26.312Z,22.46
2016-09-21T03:07:25.996Z,22.46
2016-09-21T03:08:25.986Z,22.48
2016-09-21T03:09:26.262Z,22.48
2016-09-21T03:10:26.255Z,22.51
2016-09-21T03:11:25.931Z,22.51
2016-09-21T03:12:26.211Z,22.51
2016-09-21T03:13:26.193Z,22.49
2016-09-21T03:14:26.176Z,22.45
2016-09-21T03:15:25.872Z,22.49
2016-09-21T03:16:26.150Z,22.48
2016-09-21T03:17:25.832Z,22.49
2016-09-21T03:18:26.117Z,22.49
2016-09-21T03:19:25.806Z,22.42
2016-09-21T03:20:25.785Z,22.51
2016-09-21T03:21:26.070Z,22.49
2016-09-21T03:22:26.067Z,22.52
2016-09-21T03:23:26.039Z,22.49
2016-09-21T03:24:26.024Z,22.46
2016-09-21T03:25:26.011Z,22.48
2016-09-21T03:26:25.693Z,22.48
2016-09-21T03:27:25.704Z,22.51
2016-09-21T03:28:25.668Z,22.52
2016-09-21T03:29:25.952Z,22.46
2016-09-21T03:30:25.924Z,22.48
2016-09-21T03:31:25.611Z,22.52
2016-09-21T03:32:25.904Z,22.51
2016-09-21T03:33:25.604Z,22.49
2016-09-21T03:34:25.867Z,22.45
2016-09-21T03:35:25.550Z,22.44
2016-09-21T03:36:25.836Z,22.45
2016-09-21T03:37:25.819Z,22.49
2016-09-21T03:38:25.798Z,22.48
2016-09-21T03:39:25.792Z,22.52
2016-09-21T03:40:25.483Z,22.45
2016-09-21T03:41:25.757Z,22.46
2016-09-21T03:42:25.743Z,22.48
2016-09-21T03:43:25.422Z,22.54
2016-09-21T03:44:25.414Z,22.51
2016-09-21T03:45:25.690Z,22.54
2016-09-21T03:46:25.685Z,22.45
2016-09-21T03:47:25.665Z,22.49
2016-09-21T03:48:25.648Z,22.54
2016-09-21T03:49:25.641Z,22.46
2016-09-21T03:50:25.617Z,22.49
2016-09-21T03:51:24.996Z,22.46
2016-09-21T03:52:25.583Z,22.48
2016-09-21T03:53:25.266Z,22.48
2016-09-21T03:54:25.552Z,22.54
2016-09-21T03:55:25.239Z,22.44
2016-09-21T03:56:25.516Z,22.48
2016-09-21T03:57:25.517Z,22.42
2016-09-21T03:58:25.490Z,22.41
2016-09-21T03:59:25.170Z,22.49
2016-09-21T04:00:25.450Z,22.49
2016-09-21T04:01:25.446Z,22.45
2016-09-21T04:02:25.425Z,22.54
2016-09-21T04:03:25.408Z,22.45
2016-09-21T04:04:25.391Z,22.44
2016-09-21T04:05:25.104Z,22.52
2016-09-21T04:06:25.367Z,22.49
2016-09-21T04:07:25.044Z,22.49
2016-09-21T04:08:25.328Z,22.48
2016-09-21T04:09:25.313Z,22.39
2016-09-21T04:10:25.299Z,22.52
2016-09-21T04:11:24.996Z,22.41
2016-09-21T04:12:25.277Z,22.44
2016-09-21T04:13:25.254Z,22.56
2016-09-21T04:14:25.230Z,22.46
2016-09-21T04:15:24.913Z,22.52
2016-09-21T04:16:24.910Z,22.48
2016-09-21T04:17:24.893Z,22.51
2016-09-21T04:18:25.168Z,22.49
2016-09-21T04:19:25.161Z,22.51
2016-09-21T04:20:24.838Z,22.46
2016-09-21T04:21:25.117Z,22.48
2016-09-21T04:22:25.113Z,22.46
2016-09-21T04:23:25.099Z,22.41
2016-09-21T04:24:25.077Z,22.46
2016-09-21T04:25:25.068Z,22.45
2016-09-21T04:26:24.737Z,22.45
2016-09-21T04:27:25.037Z,22.45
2016-09-21T04:28:25.013Z,22.41
2016-09-21T04:29:25.013Z,22.46
2016-09-21T04:30:24.986Z,22.44
2016-09-21T04:31:24.961Z,22.44
2016-09-21T04:32:24.953Z,22.42
2016-09-21T04:33:24.637Z,22.33
2016-09-21T04:34:24.934Z,22.36
2016-09-21T04:35:24.924Z,22.33
2016-09-21T04:36:24.884Z,22.35
2016-09-21T04:37:24.873Z,22.31
2016-09-21T04:38:24.549Z,22.33
2016-09-21T04:39:24.536Z,22.39
2016-09-21T04:40:24.832Z,22.36
2016-09-21T04:41:24.825Z,22.39
2016-09-21T04:42:24.794Z,22.41
2016-09-21T04:43:24.776Z,22.29
2016-09-21T04:44:24.463Z,22.36
2016-09-21T04:45:24.749Z,22.36
2016-09-21T04:46:24.738Z,22.39
2016-09-21T04:47:24.719Z,22.3
2016-09-21T04:48:24.400Z,22.38
2016-09-21T04:49:24.378Z,22.3
2016-09-21T04:50:24.667Z,22.45
2016-09-21T04:51:24.652Z,22.41
2016-09-21T04:52:24.627Z,22.42
2016-09-21T04:53:24.622Z,22.41
2016-09-21T04:54:24.603Z,22.41
2016-09-21T04:55:24.295Z,22.35
2016-09-21T04:56:24.574Z,22.35
2016-09-21T04:57:24.256Z,22.35
2016-09-21T04:58:24.541Z,22.38
2016-09-21T04:59:24.218Z,22.33
2016-09-21T05:00:24.517Z,22.42
2016-09-21T05:01:24.489Z,22.36
2016-09-21T05:02:24.175Z,22.27
2016-09-21T05:03:24.462Z,22.24
2016-09-21T05:04:24.443Z,22.17
2016-09-21T05:05:24.434Z,22.17
2016-09-21T05:06:24.417Z,22.14
2016-09-21T05:07:24.399Z,22.17
2016-09-21T05:08:24.380Z,22.12
2016-09-21T05:09:24.058Z,22.21
2016-09-21T05:10:24.343Z,22.09
2016-09-21T05:11:24.338Z,22.11
2016-09-21T05:12:24.014Z,22.14
2016-09-21T05:13:24.304Z,22.11
2016-09-21T05:14:23.994Z,22.15
2016-09-21T05:15:23.974Z,22.08
2016-09-21T05:16:24.250Z,22.05
2016-09-21T05:17:24.240Z,22.02
2016-09-21T05:18:24.222Z,21.93
2016-09-21T05:19:23.912Z,21.99
2016-09-21T05:20:24.189Z,22.01
2016-09-21T05:21:24.169Z,22.06
2016-09-21T05:22:24.167Z,22.06
2016-09-21T05:23:24.134Z,22.08
2016-09-21T05:24:24.136Z,22.11
2016-09-21T05:25:24.109Z,22.09
2016-09-21T05:26:24.091Z,22.15
2016-09-21T05:27:24.079Z,22.17
2016-09-21T05:28:23.756Z,22.08
2016-09-21T05:29:24.050Z,22.14
2016-09-21T05:30:23.727Z,22.08
2016-09-21T05:31:24.022Z,22.15
2016-09-21T05:32:23.398Z,22.14
2016-09-21T05:33:23.977Z,22.08
2016-09-21T05:34:23.671Z,22.08
2016-09-21T05:35:23.648Z,22.09
2016-09-21T05:36:23.936Z,22.08
2016-09-21T05:37:23.924Z,22.09
2016-09-21T05:38:23.898Z,22.15
2016-09-21T05:39:23.579Z,22.14
2016-09-21T05:40:23.868Z,22.17
2016-09-21T05:41:23.856Z,22.11
2016-09-21T05:42:23.840Z,22.12
2016-09-21T05:43:23.829Z,22.15
2016-09-21T05:44:23.820Z,22.14
2016-09-21T05:45:23.787Z,22.11
2016-09-21T05:46:23.471Z,22.12
2016-09-21T05:47:23.759Z,22.11
2016-09-21T05:48:23.755Z,22.15
2016-09-21T05:49:23.720Z,22.15
2016-09-21T05:50:23.707Z,22.08
2016-09-21T05:51:23.701Z,22.08
2016-09-21T05:52:23.690Z,22.11
2016-09-21T05:53:23.659Z,22.14
2016-09-21T05:54:23.646Z,22.12
2016-09-21T05:55:23.632Z,22.14
2016-09-21T05:56:23.318Z,22.14
2016-09-21T05:57:23.300Z,22.14
2016-09-21T05:58:23.588Z,22.08
2016-09-21T05:59:23.563Z,22.05
2016-09-21T06:00:23.249Z,22.08
2016-09-21T06:01:23.529Z,22.15
2016-09-21T06:02:23.524Z,22.11
2016-09-21T06:03:23.497Z,22.11
2016-09-21T06:04:23.186Z,22.06
2016-09-21T06:05:23.484Z,22.17
2016-09-21T06:06:23.454Z,22.02
2016-09-21T06:07:23.138Z,22.06
2016-09-21T06:08:23.423Z,22.09
2016-09-21T06:09:23.119Z,22.12
2016-09-21T06:10:23.390Z,22.08
2016-09-21T06:11:23.369Z,22.11
2016-09-21T06:12:23.061Z,22.14
2016-09-21T06:13:23.348Z,22.11
2016-09-21T06:14:23.319Z,22.08
2016-09-21T06:15:23.009Z,22.11
2016-09-21T06:16:23.290Z,22.14
2016-09-21T06:17:22.975Z,22.15
2016-09-21T06:18:23.264Z,22.12
2016-09-21T06:19:23.243Z,22.08
2016-09-21T06:20:22.923Z,21.9
2016-09-21T06:21:23.211Z,21.74
2016-09-21T06:22:23.199Z,21.58
2016-09-21T06:23:23.178Z,21.48
2016-09-21T06:24:22.882Z,21.36
2016-09-21T06:25:23.151Z,21.22
2016-09-21T06:26:23.129Z,21.26
2016-09-21T06:27:22.814Z,21.21
2016-09-21T06:28:23.102Z,21.12
2016-09-21T06:29:23.101Z,21.06
2016-09-21T06:30:23.073Z,21.05
2016-09-21T06:31:23.057Z,20.98
2016-09-21T06:32:22.741Z,21.06
2016-09-21T06:33:23.017Z,21.05
2016-09-21T06:34:23.020Z,20.97
2016-09-21T06:35:22.987Z,21.05
2016-09-21T06:36:22.987Z,21.01
2016-09-21T06:37:22.957Z,20.91
2016-09-21T06:38:22.945Z,20.88
2016-09-21T06:39:22.939Z,20.85
2016-09-21T06:40:22.924Z,20.9
2016-09-21T06:41:22.598Z,20.83
2016-09-21T06:42:22.579Z,20.9
2016-09-21T06:43:22.863Z,20.91
2016-09-21T06:44:22.848Z,20.81
2016-09-21T06:45:22.834Z,20.87
2016-09-21T06:46:22.811Z,20.87
2016-09-21T06:47:22.199Z,20.83
2016-09-21T06:48:22.776Z,20.93
2016-09-21T06:49:22.771Z,20.93
2016-09-21T06:50:22.439Z,20.83
2016-09-21T06:51:22.726Z,20.87
2016-09-21T06:52:22.411Z,20.87
2016-09-21T06:53:22.396Z,20.78
2016-09-21T06:54:22.675Z,20.82
2016-09-21T06:55:22.673Z,20.81
2016-09-21T06:56:22.349Z,20.76
2016-09-21T06:57:22.631Z,20.81
2016-09-21T06:58:22.615Z,20.87
2016-09-21T06:59:22.610Z,20.75
2016-09-21T07:00:22.281Z,20.85
2016-09-21T07:01:22.563Z,20.81
2016-09-21T07:02:22.547Z,20.79
2016-09-21T07:03:22.529Z,20.73
2016-09-21T07:04:22.216Z,20.76
2016-09-21T07:05:22.505Z,20.79
2016-09-21T07:06:22.186Z,20.75
2016-09-21T07:07:22.164Z,20.76
2016-09-21T07:08:22.455Z,20.79
2016-09-21T07:09:22.138Z,20.71
2016-09-21T07:10:22.118Z,20.78
2016-09-21T07:11:22.405Z,20.78
2016-09-21T07:12:21.784Z,20.79
2016-09-21T07:13:22.391Z,20.72
2016-09-21T07:14:22.345Z,20.75
2016-09-21T07:15:22.331Z,20.72
2016-09-21T07:16:21.722Z,20.75
2016-09-21T07:17:22.303Z,20.73
2016-09-21T07:18:22.293Z,20.81
2016-09-21T07:19:22.267Z,20.71
2016-09-21T07:20:22.256Z,20.79
2016-09-21T07:21:22.240Z,20.83
2016-09-21T07:22:22.224Z,20.83
2016-09-21T07:23:22.208Z,20.82
2016-09-21T07:24:21.592Z,20.85
2016-09-21T07:25:22.193Z,20.81
2016-09-21T07:26:22.158Z,20.85
2016-09-21T07:27:22.145Z,20.76
2016-09-21T07:28:22.127Z,20.73
2016-09-21T07:29:21.807Z,20.82
2016-09-21T07:30:22.093Z,20.75
2016-09-21T07:31:21.780Z,20.88
2016-09-21T07:32:22.057Z,20.81
2016-09-21T07:33:21.742Z,20.87
2016-09-21T07:34:21.728Z,20.87
2016-09-21T07:35:21.711Z,20.97
2016-09-21T07:36:21.698Z,20.97
2016-09-21T07:37:21.975Z,21.08
2016-09-21T07:38:21.953Z,21.24
2016-09-21T07:39:21.948Z,21.27
2016-09-21T07:40:21.931Z,21.33
2016-09-21T07:41:21.912Z,21.4
2016-09-21T07:42:21.586Z,21.37
2016-09-21T07:43:21.577Z,21.38
2016-09-21T07:44:21.581Z,21.37
2016-09-21T07:45:21.842Z,21.21
2016-09-21T07:46:21.526Z,21.28
2016-09-21T07:47:21.506Z,21.33
2016-09-21T07:48:21.792Z,21.28
2016-09-21T07:49:21.768Z,21.26
2016-09-21T07:50:21.472Z,21.33
2016-09-21T07:51:21.744Z,21.3
2016-09-21T07:52:21.733Z,21.26
2016-09-21T07:53:21.115Z,21.27
2016-09-21T07:54:21.705Z,21.28
2016-09-21T07:55:21.380Z,21.3
2016-09-21T07:56:21.661Z,21.24
2016-09-21T07:57:21.644Z,21.22
2016-09-21T07:58:21.332Z,21.3
2016-09-21T07:59:21.617Z,21.34
2016-09-21T08:00:21.297Z,21.22
2016-09-21T08:01:21.284Z,21.3
2016-09-21T08:02:21.259Z,21.19
2016-09-21T08:03:21.554Z,21.28
2016-09-21T08:04:21.226Z,21.26
2016-09-21T08:05:21.515Z,21.24
2016-09-21T08:06:21.199Z,21.3
2016-09-21T08:07:21.177Z,21.27
2016-09-21T08:08:21.159Z,21.27
2016-09-21T08:09:21.452Z,21.26
2016-09-21T08:10:21.432Z,21.19
2016-09-21T08:11:21.109Z,21.27
2016-09-21T08:12:21.396Z,21.31
2016-09-21T08:13:21.385Z,21.34
2016-09-21T08:14:21.365Z,21.4
2016-09-21T08:15:21.346Z,21.37
2016-09-21T08:16:21.335Z,21.46
2016-09-21T08:17:20.719Z,21.52
2016-09-21T08:18:21.304Z,21.53
2016-09-21T08:19:20.995Z,21.55
2016-09-21T08:20:20.972Z,21.52
2016-09-21T08:21:20.980Z,21.51
2016-09-21T08:22:20.947Z,21.48
2016-09-21T08:23:21.241Z,21.56
2016-09-21T08:24:20.901Z,21.53
2016-09-21T08:25:21.187Z,21.53
2016-09-21T08:26:21.175Z,21.59
2016-09-21T08:27:21.160Z,21.58
2016-09-21T08:28:21.129Z,21.67
2016-09-21T08:29:21.117Z,21.61
2016-09-21T08:30:20.794Z,21.55
2016-09-21T08:31:21.085Z,21.68
2016-09-21T08:32:21.070Z,21.56
2016-09-21T08:33:21.044Z,21.68
2016-09-21T08:34:21.035Z,21.61
2016-09-21T08:35:21.022Z,21.61
2016-09-21T08:36:20.995Z,21.55
2016-09-21T08:37:20.982Z,21.59
2016-09-21T08:38:20.671Z,21.56
2016-09-21T08:39:20.959Z,21.61
2016-09-21T08:40:20.937Z,21.63
2016-09-21T08:41:20.913Z,21.63
2016-09-21T08:42:20.909Z,21.63
2016-09-21T08:43:20.897Z,21.63
2016-09-21T08:44:20.873Z,21.61
2016-09-21T08:45:20.857Z,21.63
2016-09-21T08:46:20.530Z,21.63
2016-09-21T08:47:20.820Z,21.71
2016-09-21T08:48:20.805Z,21.74
2016-09-21T08:49:20.786Z,21.7
2016-09-21T08:50:20.783Z,21.7
2016-09-21T08:51:20.755Z,21.71
2016-09-21T08:52:20.742Z,21.73
2016-09-21T08:53:20.723Z,21.66
2016-09-21T08:54:20.705Z,21.67
2016-09-21T08:55:20.708Z,21.75
2016-09-21T08:56:20.675Z,21.67
2016-09-21T08:57:20.358Z,21.75
2016-09-21T08:58:20.639Z,21.75
2016-09-21T08:59:20.621Z,21.74
2016-09-21T09:00:20.609Z,21.77
2016-09-21T09:01:20.605Z,21.7
2016-09-21T09:02:20.568Z,21.74
2016-09-21T09:03:20.250Z,21.73
2016-09-21T09:04:20.540Z,21.79
2016-09-21T09:05:20.525Z,21.83
2016-09-21T09:06:20.516Z,21.82
2016-09-21T09:07:20.495Z,21.79
2016-09-21T09:08:20.475Z,21.82
2016-09-21T09:09:20.463Z,21.83
2016-09-21T09:10:20.445Z,21.9
2016-09-21T09:11:20.424Z,21.86
2016-09-21T09:12:20.417Z,21.82
2016-09-21T09:13:20.398Z,21.86
2016-09-21T09:14:20.377Z,21.82
2016-09-21T09:15:20.372Z,21.91
2016-09-21T09:16:20.349Z,21.85
2016-09-21T09:17:20.328Z,21.82
2016-09-21T09:18:20.321Z,21.86
2016-09-21T09:19:20.301Z,21.82
2016-09-21T09:20:20.286Z,21.83
2016-09-21T09:21:19.963Z,21.86
2016-09-21T09:22:19.957Z,21.82
2016-09-21T09:23:20.238Z,21.85
2016-09-21T09:24:20.225Z,21.86
2016-09-21T09:25:20.210Z,21.79
2016-09-21T09:26:20.181Z,21.85
2016-09-21T09:27:19.870Z,21.83
2016-09-21T09:28:20.163Z,21.89
2016-09-21T09:29:20.145Z,21.89
2016-09-21T09:30:19.832Z,21.9
2016-09-21T09:31:19.813Z,21.83
2016-09-21T09:32:19.793Z,21.85
2016-09-21T09:33:20.074Z,21.9
2016-09-21T09:34:20.052Z,21.82
2016-09-21T09:35:19.737Z,21.86
2016-09-21T09:36:20.025Z,21.79
2016-09-21T09:37:20.021Z,21.85
2016-09-21T09:38:19.992Z,21.93
2016-09-21T09:39:19.975Z,21.89
2016-09-21T09:40:19.971Z,21.89
2016-09-21T09:41:19.643Z,21.86
2016-09-21T09:42:19.933Z,21.79
2016-09-21T09:43:19.913Z,21.85
2016-09-21T09:44:19.597Z,21.93
2016-09-21T09:45:19.881Z,21.89
2016-09-21T09:46:19.867Z,21.81
2016-09-21T09:47:19.858Z,21.85
2016-09-21T09:48:19.826Z,21.82
2016-09-21T09:49:19.812Z,21.75
2016-09-21T09:50:19.796Z,21.61
2016-09-21T09:51:19.487Z,21.55
2016-09-21T09:52:19.765Z,21.53
2016-09-21T09:53:19.751Z,21.58
2016-09-21T09:54:19.737Z,21.66
2016-09-21T09:55:19.732Z,21.73
2016-09-21T09:56:19.706Z,21.74
2016-09-21T09:57:19.683Z,21.73
2016-09-21T09:58:19.671Z,21.75
2016-09-21T09:59:19.649Z,21.75
2016-09-21T10:00:19.634Z,21.77
2016-09-21T10:01:19.617Z,21.77
2016-09-21T10:02:19.614Z,21.77
2016-09-21T10:03:19.584Z,21.77
2016-09-21T10:04:19.566Z,21.77
2016-09-21T10:05:19.546Z,21.74
2016-09-21T10:06:19.541Z,21.68
2016-09-21T10:07:19.515Z,21.75
2016-09-21T10:08:19.506Z,21.73
2016-09-21T10:09:19.480Z,21.81
2016-09-21T10:10:19.478Z,21.79
2016-09-21T10:11:19.454Z,21.74
2016-09-21T10:12:19.453Z,21.74
2016-09-21T10:13:19.127Z,21.77
2016-09-21T10:15:19.401Z,21.74
2016-09-21T10:16:19.388Z,21.77
2016-09-21T10:17:19.359Z,21.73
2016-09-21T10:18:19.342Z,21.81
2016-09-21T10:19:19.023Z,21.75
2016-09-21T10:20:19.311Z,21.81
2016-09-21T10:21:19.290Z,21.77
2016-09-21T10:22:19.275Z,21.81
2016-09-21T10:23:19.258Z,21.71
2016-09-21T10:24:19.247Z,21.77
2016-09-21T10:25:19.222Z,21.79
2016-09-21T10:26:19.210Z,21.83
2016-09-21T10:27:18.893Z,21.7
2016-09-21T10:28:19.178Z,21.74
2016-09-21T10:29:19.157Z,21.73
2016-09-21T10:30:19.148Z,21.75
2016-09-21T10:31:19.123Z,21.73
2016-09-21T10:32:19.109Z,21.79
2016-09-21T10:33:18.794Z,21.82
2016-09-21T10:34:19.083Z,21.86
2016-09-21T10:35:19.061Z,21.85
2016-09-21T10:36:19.044Z,21.83
2016-09-21T10:37:18.738Z,21.83
2016-09-21T10:38:19.013Z,21.85
2016-09-21T10:39:18.992Z,21.83
2016-09-21T10:40:18.995Z,21.85
2016-09-21T10:41:18.962Z,21.79
2016-09-21T10:42:18.942Z,21.82
2016-09-21T10:43:18.329Z,21.94
2016-09-21T10:44:18.919Z,21.83
2016-09-21T10:45:18.901Z,21.82
2016-09-21T10:46:18.888Z,21.91
2016-09-21T10:47:18.566Z,21.91
2016-09-21T10:48:18.847Z,21.94
2016-09-21T10:49:18.836Z,21.91
2016-09-21T10:50:18.811Z,21.89
2016-09-21T10:51:18.795Z,21.94
2016-09-21T10:52:18.787Z,21.96
2016-09-21T10:53:18.481Z,21.89
2016-09-21T10:54:18.750Z,21.9
2016-09-21T10:55:18.736Z,21.86
2016-09-21T10:56:18.711Z,21.81
2016-09-21T10:57:19.809Z,21.86
2016-09-21T10:58:18.689Z,21.86
2016-09-21T10:59:18.671Z,21.79
2016-09-21T11:00:18.653Z,21.71
2016-09-21T11:01:18.650Z,21.79
2016-09-21T11:02:18.620Z,21.75
2016-09-21T11:03:18.610Z,21.73
2016-09-21T11:04:18.588Z,21.73
2016-09-21T11:05:18.579Z,21.71
2016-09-21T11:06:18.558Z,21.73
2016-09-21T11:07:18.541Z,21.75
2016-09-21T11:08:18.544Z,21.79
2016-09-21T11:09:18.508Z,21.79
2016-09-21T11:10:18.491Z,21.73
2016-09-21T11:11:18.477Z,21.71
2016-09-21T11:12:18.459Z,21.75
2016-09-21T11:13:18.138Z,21.77
2016-09-21T11:14:18.431Z,21.74
2016-09-21T11:15:18.418Z,21.79
2016-09-21T11:16:18.095Z,21.77
2016-09-21T11:17:18.376Z,21.82
2016-09-21T11:18:18.369Z,21.77
2016-09-21T11:19:18.351Z,21.79
2016-09-21T11:20:18.323Z,21.77
2016-09-21T11:21:18.006Z,21.73
2016-09-21T11:22:18.293Z,21.83
2016-09-21T11:23:18.286Z,21.77
2016-09-21T11:24:18.269Z,21.74
2016-09-21T11:25:18.247Z,21.77
2016-09-21T11:26:18.225Z,21.74
2016-09-21T11:27:17.919Z,21.79
2016-09-21T11:28:18.197Z,21.75
2016-09-21T11:29:18.178Z,21.75
2016-09-21T11:30:18.159Z,21.77
2016-09-21T11:31:18.150Z,21.73
2016-09-21T11:32:17.833Z,21.77
2016-09-21T11:33:18.130Z,21.75
2016-09-21T11:34:18.111Z,21.74
2016-09-21T11:35:18.082Z,21.74
2016-09-21T11:36:18.060Z,21.74
2016-09-21T11:37:18.047Z,21.77
2016-09-21T11:38:17.734Z,21.73
2016-09-21T11:39:18.031Z,21.74
2016-09-21T11:40:18.001Z,21.7
2016-09-21T11:41:17.988Z,21.81
2016-09-21T11:42:17.980Z,21.75
2016-09-21T11:43:17.951Z,21.75
2016-09-21T11:44:17.944Z,21.73
2016-09-21T11:45:17.916Z,21.71
2016-09-21T11:46:17.903Z,21.81
2016-09-21T11:47:17.882Z,21.89
2016-09-21T11:48:17.888Z,21.77
2016-09-21T11:49:17.859Z,21.85
2016-09-21T11:50:17.836Z,21.79
2016-09-21T11:51:17.821Z,21.79
2016-09-21T11:52:17.812Z,21.79
2016-09-21T11:53:17.789Z,21.71
2016-09-21T11:54:17.768Z,21.81
2016-09-21T11:55:17.756Z,21.82
2016-09-21T11:56:17.739Z,21.81
2016-09-21T11:57:17.722Z,21.79
2016-09-21T11:58:17.705Z,21.83
2016-09-21T11:59:17.699Z,21.89
2016-09-21T12:00:17.672Z,21.89
2016-09-21T12:01:17.661Z,21.85
2016-09-21T12:02:17.649Z,21.85
2016-09-21T12:03:17.620Z,21.85
2016-09-21T12:04:17.617Z,21.85
2016-09-21T12:05:17.601Z,21.85
2016-09-21T12:06:17.581Z,21.85
2016-09-21T12:07:17.560Z,21.89
2016-09-21T12:08:17.543Z,21.85
2016-09-21T12:09:17.530Z,21.86
2016-09-21T12:10:17.511Z,21.94
2016-09-21T12:11:17.500Z,21.98
2016-09-21T12:12:17.484Z,21.85
2016-09-21T12:13:17.468Z,21.9
2016-09-21T12:14:17.445Z,21.83
2016-09-21T12:15:17.433Z,21.94
2016-09-21T12:16:17.411Z,21.86
2016-09-21T12:17:17.421Z,21.89
2016-09-21T12:18:17.384Z,21.89
2016-09-21T12:19:17.367Z,21.99
2016-09-21T12:20:17.354Z,21.86
2016-09-21T12:21:17.335Z,21.86
2016-09-21T12:22:17.317Z,21.83
2016-09-21T12:23:17.302Z,21.9
2016-09-21T12:24:17.283Z,21.83
2016-09-21T12:25:17.267Z,21.9
2016-09-21T12:26:17.263Z,21.9
2016-09-21T12:27:17.238Z,22.01
2016-09-21T12:28:16.912Z,21.93
2016-09-21T12:29:17.203Z,21.89
2016-09-21T12:30:17.189Z,21.85
2016-09-21T12:31:17.174Z,21.91
2016-09-21T12:32:17.154Z,21.89
2016-09-21T12:33:17.145Z,21.93
2016-09-21T12:34:17.129Z,21.94
2016-09-21T12:35:17.146Z,21.94
2016-09-21T12:36:17.093Z,21.94
2016-09-21T12:37:17.078Z,21.96
2016-09-21T12:38:17.063Z,21.99
2016-09-21T12:39:17.039Z,22.05
2016-09-21T12:40:17.020Z,22.08
2016-09-21T12:41:17.014Z,22.19
2016-09-21T12:42:16.989Z,22.14
2016-09-21T12:43:16.975Z,22.02
2016-09-21T12:44:16.992Z,22.08
2016-09-21T12:45:16.637Z,22.08
2016-09-21T12:46:16.925Z,22.08
2016-09-21T12:47:16.916Z,22.08
2016-09-21T12:48:16.913Z,22.17
2016-09-21T12:49:16.879Z,22.14
2016-09-21T12:50:16.877Z,22.11
2016-09-21T12:51:16.850Z,22.11
2016-09-21T12:52:16.868Z,22.09
2016-09-21T12:53:16.817Z,22.06
2016-09-21T12:54:16.792Z,22.02